sensor_id;sensor_type;location;lat;lon;timestamp;pressure;altitude;pressure_sealevel;temperature;humidity
11682;BME280;5897;42.640;23.310;2022-10-03T00:00:13;93922.19;;;12.96;82.77
11682;BME280;5897;42.640;23.310;2022-10-03T00:05:52;93914.59;;;12.91;81.47
11682;BME280;5897;42.640;23.310;2022-10-03T00:08:33;93907.53;;;12.72;83.30
11682;BME280;5897;42.640;23.310;2022-10-03T00:11:08;93911.81;;;12.82;82.63
11682;BME280;5897;42.640;23.310;2022-10-03T00:13:46;93906.88;;;12.68;83.57
11682;BME280;5897;42.640;23.310;2022-10-03T00:16:19;93896.84;;;12.56;84.59
11682;BME280;5897;42.640;23.310;2022-10-03T00:18:56;93891.63;;;12.61;84.52
11682;BME280;5897;42.640;23.310;2022-10-03T00:21:36;93880.16;;;12.57;84.38
11682;BME280;5897;42.640;23.310;2022-10-03T00:24:15;93872.50;;;12.65;83.34
11682;BME280;5897;42.640;23.310;2022-10-03T00:26:51;93868.81;;;12.71;83.34
11682;BME280;5897;42.640;23.310;2022-10-03T00:29:30;93871.53;;;12.71;83.11
11682;BME280;5897;42.640;23.310;2022-10-03T00:32:10;93870.44;;;12.69;83.20
11682;BME280;5897;42.640;23.310;2022-10-03T00:34:53;93869.31;;;12.79;83.23
11682;BME280;5897;42.640;23.310;2022-10-03T00:37:31;93881.41;;;12.87;81.71
11682;BME280;5897;42.640;23.310;2022-10-03T00:40:17;93896.69;;;12.93;82.24
11682;BME280;5897;42.640;23.310;2022-10-03T00:43:16;93894.66;;;12.85;81.22
11682;BME280;5897;42.640;23.310;2022-10-03T00:52:12;93892.47;;;12.37;84.42
11682;BME280;5897;42.640;23.310;2022-10-03T00:54:53;93889.00;;;12.36;85.00
11682;BME280;5897;42.640;23.310;2022-10-03T00:57:39;93889.00;;;12.36;84.77
11682;BME280;5897;42.640;23.310;2022-10-03T01:00:17;93888.75;;;12.43;84.58
11682;BME280;5897;42.640;23.310;2022-10-03T01:02:55;93881.16;;;12.51;84.33
11682;BME280;5897;42.640;23.310;2022-10-03T01:05:32;93875.84;;;12.47;84.76
11682;BME280;5897;42.640;23.310;2022-10-03T01:08:42;93884.78;;;12.35;85.45
11682;BME280;5897;42.640;23.310;2022-10-03T01:11:23;93873.38;;;12.40;85.19
11682;BME280;5897;42.640;23.310;2022-10-03T01:14:02;93868.78;;;12.28;86.53
11682;BME280;5897;42.640;23.310;2022-10-03T01:16:40;93863.69;;;12.18;87.63
11682;BME280;5897;42.640;23.310;2022-10-03T01:19:26;93861.56;;;12.01;89.13
11682;BME280;5897;42.640;23.310;2022-10-03T01:22:10;93871.25;;;12.23;87.56
11682;BME280;5897;42.640;23.310;2022-10-03T01:24:50;93863.38;;;12.16;88.04
11682;BME280;5897;42.640;23.310;2022-10-03T01:27:25;93869.81;;;12.31;87.33
11682;BME280;5897;42.640;23.310;2022-10-03T01:30:00;93856.53;;;12.24;87.65
11682;BME280;5897;42.640;23.310;2022-10-03T01:33:02;93862.72;;;12.24;87.48
11682;BME280;5897;42.640;23.310;2022-10-03T01:35:37;93858.19;;;12.09;87.83
11682;BME280;5897;42.640;23.310;2022-10-03T01:38:15;93863.41;;;12.03;89.07
11682;BME280;5897;42.640;23.310;2022-10-03T01:40:52;93849.34;;;11.96;89.72
11682;BME280;5897;42.640;23.310;2022-10-03T01:43:29;93862.19;;;12.04;89.94
11682;BME280;5897;42.640;23.310;2022-10-03T01:46:07;93860.66;;;12.16;89.40
11682;BME280;5897;42.640;23.310;2022-10-03T01:48:43;93861.88;;;12.15;88.74
11682;BME280;5897;42.640;23.310;2022-10-03T01:51:16;93860.78;;;12.13;88.75
11682;BME280;5897;42.640;23.310;2022-10-03T01:54:00;93859.41;;;11.96;90.18
11682;BME280;5897;42.640;23.310;2022-10-03T01:56:34;93853.88;;;11.99;89.94
11682;BME280;5897;42.640;23.310;2022-10-03T01:59:10;93854.56;;;11.91;90.51
11682;BME280;5897;42.640;23.310;2022-10-03T02:01:46;93848.13;;;11.97;90.80
11682;BME280;5897;42.640;23.310;2022-10-03T02:04:21;93848.84;;;11.76;91.14
11682;BME280;5897;42.640;23.310;2022-10-03T02:07:02;93842.53;;;11.54;93.07
11682;BME280;5897;42.640;23.310;2022-10-03T02:09:36;93845.56;;;11.31;95.46
11682;BME280;5897;42.640;23.310;2022-10-03T02:12:12;93838.97;;;11.32;96.07
11682;BME280;5897;42.640;23.310;2022-10-03T02:14:52;93835.41;;;11.35;96.02
11682;BME280;5897;42.640;23.310;2022-10-03T02:17:26;93847.84;;;11.33;96.26
11682;BME280;5897;42.640;23.310;2022-10-03T02:20:02;93843.50;;;11.23;97.34
11682;BME280;5897;42.640;23.310;2022-10-03T02:22:34;93835.94;;;11.30;96.51
11682;BME280;5897;42.640;23.310;2022-10-03T02:25:22;93841.13;;;11.37;96.48
11682;BME280;5897;42.640;23.310;2022-10-03T02:28:12;93842.44;;;11.45;96.06
11682;BME280;5897;42.640;23.310;2022-10-03T02:30:57;93847.22;;;11.41;96.28
11682;BME280;5897;42.640;23.310;2022-10-03T02:33:56;93845.13;;;11.45;96.29
11682;BME280;5897;42.640;23.310;2022-10-03T02:36:51;93833.78;;;11.50;96.23
11682;BME280;5897;42.640;23.310;2022-10-03T02:42:58;93840.84;;;11.60;95.43
11682;BME280;5897;42.640;23.310;2022-10-03T02:49:03;93836.69;;;11.81;94.49
11682;BME280;5897;42.640;23.310;2022-10-03T02:55:27;93845.00;;;11.98;93.77
11682;BME280;5897;42.640;23.310;2022-10-03T02:58:28;93843.47;;;12.10;93.32
11682;BME280;5897;42.640;23.310;2022-10-03T03:01:35;93839.06;;;12.25;92.15
11682;BME280;5897;42.640;23.310;2022-10-03T03:07:29;93835.34;;;12.44;89.84
11682;BME280;5897;42.640;23.310;2022-10-03T03:10:23;93835.94;;;12.48;89.87
11682;BME280;5897;42.640;23.310;2022-10-03T03:13:21;93838.47;;;12.42;89.48
11682;BME280;5897;42.640;23.310;2022-10-03T03:19:10;93830.44;;;12.51;90.71
11682;BME280;5897;42.640;23.310;2022-10-03T03:21:44;93832.69;;;12.53;90.67
11682;BME280;5897;42.640;23.310;2022-10-03T03:24:24;93839.06;;;12.59;89.26
11682;BME280;5897;42.640;23.310;2022-10-03T03:27:27;93820.91;;;12.47;89.47
11682;BME280;5897;42.640;23.310;2022-10-03T03:30:01;93831.59;;;12.50;89.63
11682;BME280;5897;42.640;23.310;2022-10-03T03:32:39;93831.13;;;12.43;89.77
11682;BME280;5897;42.640;23.310;2022-10-03T03:35:21;93822.66;;;12.41;90.02
11682;BME280;5897;42.640;23.310;2022-10-03T03:38:00;93834.25;;;12.41;90.50
11682;BME280;5897;42.640;23.310;2022-10-03T03:40:39;93824.50;;;12.44;90.82
11682;BME280;5897;42.640;23.310;2022-10-03T03:43:41;93822.75;;;12.50;91.21
11682;BME280;5897;42.640;23.310;2022-10-03T03:46:19;93827.38;;;12.49;91.16
11682;BME280;5897;42.640;23.310;2022-10-03T03:51:44;93808.28;;;12.31;91.85
11682;BME280;5897;42.640;23.310;2022-10-03T03:54:39;93806.28;;;12.44;91.45
11682;BME280;5897;42.640;23.310;2022-10-03T03:57:22;93800.97;;;12.41;91.58
11682;BME280;5897;42.640;23.310;2022-10-03T04:00:03;93798.44;;;12.25;93.22
11682;BME280;5897;42.640;23.310;2022-10-03T04:05:40;93793.66;;;12.29;93.05
11682;BME280;5897;42.640;23.310;2022-10-03T04:08:23;93795.94;;;12.30;93.86
11682;BME280;5897;42.640;23.310;2022-10-03T04:11:04;93786.94;;;12.33;93.45
11682;BME280;5897;42.640;23.310;2022-10-03T04:13:43;93793.88;;;12.34;93.68
11682;BME280;5897;42.640;23.310;2022-10-03T04:16:23;93794.97;;;12.37;93.74
11682;BME280;5897;42.640;23.310;2022-10-03T04:19:11;93792.97;;;12.37;93.63
11682;BME280;5897;42.640;23.310;2022-10-03T04:24:46;93808.38;;;12.40;92.17
11682;BME280;5897;42.640;23.310;2022-10-03T04:27:51;93801.66;;;12.32;93.40
11682;BME280;5897;42.640;23.310;2022-10-03T04:30:25;93807.84;;;12.33;92.81
11682;BME280;5897;42.640;23.310;2022-10-03T04:33:08;93801.75;;;12.20;93.21
11682;BME280;5897;42.640;23.310;2022-10-03T04:38:54;93792.47;;;11.96;95.23
11682;BME280;5897;42.640;23.310;2022-10-03T04:41:30;93792.81;;;11.98;96.62
11682;BME280;5897;42.640;23.310;2022-10-03T04:44:10;93792.13;;;12.07;96.64
11682;BME280;5897;42.640;23.310;2022-10-03T04:46:48;93781.66;;;11.96;97.61
11682;BME280;5897;42.640;23.310;2022-10-03T04:49:22;93793.84;;;12.13;97.12
11682;BME280;5897;42.640;23.310;2022-10-03T04:51:59;93785.28;;;12.14;97.52
11682;BME280;5897;42.640;23.310;2022-10-03T04:54:39;93793.03;;;12.25;97.22
11682;BME280;5897;42.640;23.310;2022-10-03T04:57:20;93794.75;;;12.31;97.42
11682;BME280;5897;42.640;23.310;2022-10-03T04:59:56;93794.06;;;12.40;97.28
11682;BME280;5897;42.640;23.310;2022-10-03T05:02:35;93796.84;;;12.49;96.57
11682;BME280;5897;42.640;23.310;2022-10-03T05:05:20;93789.09;;;12.60;95.50
11682;BME280;5897;42.640;23.310;2022-10-03T05:07:54;93798.16;;;12.66;95.40
11682;BME280;5897;42.640;23.310;2022-10-03T05:10:42;93804.19;;;12.70;94.71
11682;BME280;5897;42.640;23.310;2022-10-03T05:13:15;93793.44;;;12.57;95.90
11682;BME280;5897;42.640;23.310;2022-10-03T05:15:53;93794.63;;;12.78;93.87
11682;BME280;5897;42.640;23.310;2022-10-03T05:18:31;93791.47;;;12.79;93.65
11682;BME280;5897;42.640;23.310;2022-10-03T05:21:04;93792.41;;;12.85;93.78
11682;BME280;5897;42.640;23.310;2022-10-03T05:23:45;93789.88;;;12.91;93.95
11682;BME280;5897;42.640;23.310;2022-10-03T05:26:22;93792.88;;;12.93;93.67
11682;BME280;5897;42.640;23.310;2022-10-03T05:28:53;93794.34;;;13.06;93.05
11682;BME280;5897;42.640;23.310;2022-10-03T05:31:34;93796.50;;;13.11;92.02
11682;BME280;5897;42.640;23.310;2022-10-03T05:34:12;93794.00;;;13.26;91.48
11682;BME280;5897;42.640;23.310;2022-10-03T05:36:56;93788.28;;;13.33;90.71
11682;BME280;5897;42.640;23.310;2022-10-03T05:39:37;93775.03;;;13.35;91.01
11682;BME280;5897;42.640;23.310;2022-10-03T05:42:24;93770.84;;;13.43;90.09
11682;BME280;5897;42.640;23.310;2022-10-03T05:45:02;93763.75;;;13.45;88.50
11682;BME280;5897;42.640;23.310;2022-10-03T05:47:35;93759.69;;;13.50;89.04
11682;BME280;5897;42.640;23.310;2022-10-03T05:50:48;93753.88;;;13.60;88.67
11682;BME280;5897;42.640;23.310;2022-10-03T05:53:49;93757.63;;;13.63;89.19
11682;BME280;5897;42.640;23.310;2022-10-03T05:56:36;93772.47;;;13.80;88.95
11682;BME280;5897;42.640;23.310;2022-10-03T05:59:22;93773.66;;;13.88;89.49
11682;BME280;5897;42.640;23.310;2022-10-03T06:02:23;93783.78;;;13.96;89.26
11682;BME280;5897;42.640;23.310;2022-10-03T06:05:11;93790.75;;;14.06;88.84
11682;BME280;5897;42.640;23.310;2022-10-03T06:07:51;93787.13;;;14.18;86.52
11682;BME280;5897;42.640;23.310;2022-10-03T06:10:38;93794.72;;;14.23;86.97
11682;BME280;5897;42.640;23.310;2022-10-03T06:13:14;93813.88;;;14.29;86.14
11682;BME280;5897;42.640;23.310;2022-10-03T06:15:49;93807.09;;;14.42;86.45
11682;BME280;5897;42.640;23.310;2022-10-03T06:25:00;93807.69;;;14.55;84.26
11682;BME280;5897;42.640;23.310;2022-10-03T06:27:58;93813.75;;;14.59;83.29
11682;BME280;5897;42.640;23.310;2022-10-03T06:30:56;93813.28;;;14.79;83.65
11682;BME280;5897;42.640;23.310;2022-10-03T06:42:59;93809.41;;;15.21;81.66
11682;BME280;5897;42.640;23.310;2022-10-03T06:46:00;93801.63;;;15.47;80.59
11682;BME280;5897;42.640;23.310;2022-10-03T06:49:07;93801.56;;;15.65;80.53
11682;BME280;5897;42.640;23.310;2022-10-03T06:51:59;93802.22;;;15.83;79.77
11682;BME280;5897;42.640;23.310;2022-10-03T06:55:04;93804.44;;;15.94;77.97
11682;BME280;5897;42.640;23.310;2022-10-03T07:00:46;93824.09;;;15.98;77.00
11682;BME280;5897;42.640;23.310;2022-10-03T07:03:36;93835.59;;;16.02;76.65
11682;BME280;5897;42.640;23.310;2022-10-03T07:06:53;93835.50;;;15.87;75.57
11682;BME280;5897;42.640;23.310;2022-10-03T07:15:54;93872.34;;;15.65;77.12
11682;BME280;5897;42.640;23.310;2022-10-03T07:22:10;93887.56;;;15.39;79.91
11682;BME280;5897;42.640;23.310;2022-10-03T07:28:20;93904.69;;;15.03;82.98
11682;BME280;5897;42.640;23.310;2022-10-03T07:31:01;93908.78;;;14.99;83.95
11682;BME280;5897;42.640;23.310;2022-10-03T07:36:49;93922.81;;;14.79;85.20
11682;BME280;5897;42.640;23.310;2022-10-03T07:40:05;93918.09;;;14.44;87.14
11682;BME280;5897;42.640;23.310;2022-10-03T07:42:48;93915.81;;;14.33;88.07
11682;BME280;5897;42.640;23.310;2022-10-03T07:45:29;93909.31;;;14.31;88.69
11682;BME280;5897;42.640;23.310;2022-10-03T07:51:15;93914.03;;;13.69;94.03
11682;BME280;5897;42.640;23.310;2022-10-03T07:54:24;93920.72;;;13.47;100.00
11682;BME280;5897;42.640;23.310;2022-10-03T07:57:03;93918.22;;;13.61;100.00
11682;BME280;5897;42.640;23.310;2022-10-03T08:03:05;93915.53;;;14.01;100.00
11682;BME280;5897;42.640;23.310;2022-10-03T08:06:02;93916.88;;;13.96;99.73
11682;BME280;5897;42.640;23.310;2022-10-03T08:11:54;93910.03;;;13.83;100.00
11682;BME280;5897;42.640;23.310;2022-10-03T08:14:34;93918.16;;;13.83;100.00
11682;BME280;5897;42.640;23.310;2022-10-03T08:20:37;93921.53;;;13.87;100.00
11682;BME280;5897;42.640;23.310;2022-10-03T08:26:17;93917.34;;;14.04;100.00
11682;BME280;5897;42.640;23.310;2022-10-03T08:29:11;93924.00;;;14.03;100.00
11682;BME280;5897;42.640;23.310;2022-10-03T08:32:02;93915.38;;;13.95;100.00
11682;BME280;5897;42.640;23.310;2022-10-03T08:35:01;93923.84;;;14.06;100.00
11682;BME280;5897;42.640;23.310;2022-10-03T08:41:06;93914.44;;;14.29;100.00
11682;BME280;5897;42.640;23.310;2022-10-03T08:53:21;93930.56;;;14.23;100.00
11682;BME280;5897;42.640;23.310;2022-10-03T08:55:58;93938.88;;;14.20;100.00
11682;BME280;5897;42.640;23.310;2022-10-03T09:05:27;93935.75;;;14.39;100.00
11682;BME280;5897;42.640;23.310;2022-10-03T09:08:28;93936.84;;;14.60;100.00
11682;BME280;5897;42.640;23.310;2022-10-03T09:14:30;93934.00;;;14.90;96.90
11682;BME280;5897;42.640;23.310;2022-10-03T09:17:27;93928.25;;;14.88;100.00
11682;BME280;5897;42.640;23.310;2022-10-03T09:20:13;93937.16;;;15.43;97.42
11682;BME280;5897;42.640;23.310;2022-10-03T09:23:13;93937.66;;;15.92;95.90
11682;BME280;5897;42.640;23.310;2022-10-03T09:26:16;93933.84;;;15.98;94.55
11682;BME280;5897;42.640;23.310;2022-10-03T09:29:17;93929.38;;;15.77;87.74
11682;BME280;5897;42.640;23.310;2022-10-03T09:32:17;93931.38;;;15.59;88.91
11682;BME280;5897;42.640;23.310;2022-10-03T09:35:22;93922.31;;;15.44;88.17
11682;BME280;5897;42.640;23.310;2022-10-03T09:41:31;93932.91;;;15.51;90.77
11682;BME280;5897;42.640;23.310;2022-10-03T09:44:23;93933.50;;;15.64;87.99
11682;BME280;5897;42.640;23.310;2022-10-03T09:53:19;93936.13;;;15.91;85.95
11682;BME280;5897;42.640;23.310;2022-10-03T09:56:13;93937.31;;;15.99;86.11
11682;BME280;5897;42.640;23.310;2022-10-03T09:59:09;93926.06;;;16.06;87.08
11682;BME280;5897;42.640;23.310;2022-10-03T10:01:46;93928.84;;;16.38;87.75
11682;BME280;5897;42.640;23.310;2022-10-03T10:04:38;93917.53;;;17.16;83.99
11682;BME280;5897;42.640;23.310;2022-10-03T10:07:40;93915.81;;;17.42;75.92
11682;BME280;5897;42.640;23.310;2022-10-03T10:10:53;93920.91;;;17.49;75.43
11682;BME280;5897;42.640;23.310;2022-10-03T10:16:44;93918.84;;;17.44;72.87
11682;BME280;5897;42.640;23.310;2022-10-03T10:19:41;93921.78;;;17.17;71.55
11682;BME280;5897;42.640;23.310;2022-10-03T10:22:54;93943.53;;;16.88;70.88
11682;BME280;5897;42.640;23.310;2022-10-03T10:25:41;93930.09;;;16.52;72.81
11682;BME280;5897;42.640;23.310;2022-10-03T10:38:20;93913.91;;;16.48;72.55
11682;BME280;5897;42.640;23.310;2022-10-03T10:41:31;93930.69;;;16.23;70.44
11682;BME280;5897;42.640;23.310;2022-10-03T10:44:42;93930.81;;;16.29;68.15
11682;BME280;5897;42.640;23.310;2022-10-03T10:48:02;93932.75;;;16.37;67.79
11682;BME280;5897;42.640;23.310;2022-10-03T10:54:16;93939.22;;;16.49;67.14
11682;BME280;5897;42.640;23.310;2022-10-03T10:57:08;93935.63;;;16.43;66.87
11682;BME280;5897;42.640;23.310;2022-10-03T11:09:38;93920.72;;;17.96;60.81
11682;BME280;5897;42.640;23.310;2022-10-03T11:15:37;93916.94;;;18.42;59.62
11682;BME280;5897;42.640;23.310;2022-10-03T11:25:03;93929.06;;;16.96;65.45
11682;BME280;5897;42.640;23.310;2022-10-03T11:28:17;93932.94;;;16.66;64.08
11682;BME280;5897;42.640;23.310;2022-10-03T11:34:43;93933.00;;;16.16;69.06
11682;BME280;5897;42.640;23.310;2022-10-03T11:37:35;93938.13;;;16.23;68.35
11682;BME280;5897;42.640;23.310;2022-10-03T11:40:23;93941.97;;;16.49;66.58
11682;BME280;5897;42.640;23.310;2022-10-03T11:42:57;93945.09;;;16.56;64.19
11682;BME280;5897;42.640;23.310;2022-10-03T11:45:31;93939.06;;;17.14;65.48
11682;BME280;5897;42.640;23.310;2022-10-03T11:48:24;93925.16;;;17.50;63.04
11682;BME280;5897;42.640;23.310;2022-10-03T11:51:01;93941.75;;;17.37;61.45
11682;BME280;5897;42.640;23.310;2022-10-03T11:53:40;93929.38;;;17.13;59.50
11682;BME280;5897;42.640;23.310;2022-10-03T11:56:28;93926.28;;;17.20;61.29
11682;BME280;5897;42.640;23.310;2022-10-03T12:02:12;93929.19;;;17.16;59.83
11682;BME280;5897;42.640;23.310;2022-10-03T12:04:55;93910.19;;;16.84;60.38
11682;BME280;5897;42.640;23.310;2022-10-03T12:07:43;93919.56;;;16.92;61.99
11682;BME280;5897;42.640;23.310;2022-10-03T12:10:43;93943.22;;;16.86;60.35
11682;BME280;5897;42.640;23.310;2022-10-03T12:13:14;93938.13;;;16.79;60.15
11682;BME280;5897;42.640;23.310;2022-10-03T12:15:46;93921.75;;;16.79;61.13
11682;BME280;5897;42.640;23.310;2022-10-03T12:18:19;93925.56;;;16.96;61.86
11682;BME280;5897;42.640;23.310;2022-10-03T12:21:06;93910.09;;;17.16;61.30
11682;BME280;5897;42.640;23.310;2022-10-03T12:23:51;93905.25;;;17.49;60.77
11682;BME280;5897;42.640;23.310;2022-10-03T12:26:27;93913.72;;;17.51;61.29
11682;BME280;5897;42.640;23.310;2022-10-03T12:28:58;93906.38;;;18.01;59.01
11682;BME280;5897;42.640;23.310;2022-10-03T12:31:32;93911.41;;;18.37;58.16
11682;BME280;5897;42.640;23.310;2022-10-03T12:34:17;93907.53;;;18.63;55.32
11682;BME280;5897;42.640;23.310;2022-10-03T12:36:50;93900.22;;;18.55;50.17
11682;BME280;5897;42.640;23.310;2022-10-03T12:39:28;93906.63;;;18.32;51.72
11682;BME280;5897;42.640;23.310;2022-10-03T12:42:20;93883.94;;;18.66;51.01
11682;BME280;5897;42.640;23.310;2022-10-03T12:44:56;93898.72;;;19.34;49.23
11682;BME280;5897;42.640;23.310;2022-10-03T12:47:33;93896.63;;;19.49;48.64
11682;BME280;5897;42.640;23.310;2022-10-03T12:50:16;93895.16;;;19.53;47.70
11682;BME280;5897;42.640;23.310;2022-10-03T12:52:53;93910.59;;;19.76;46.29
11682;BME280;5897;42.640;23.310;2022-10-03T12:55:25;93908.63;;;19.82;45.23
11682;BME280;5897;42.640;23.310;2022-10-03T12:57:59;93902.31;;;19.45;45.66
11682;BME280;5897;42.640;23.310;2022-10-03T13:00:33;93921.22;;;19.43;44.48
11682;BME280;5897;42.640;23.310;2022-10-03T13:03:14;93914.25;;;19.02;45.65
11682;BME280;5897;42.640;23.310;2022-10-03T13:05:57;93909.38;;;19.12;46.48
11682;BME280;5897;42.640;23.310;2022-10-03T13:08:42;93902.69;;;18.53;45.82
11682;BME280;5897;42.640;23.310;2022-10-03T13:11:27;93919.41;;;18.75;47.00
11682;BME280;5897;42.640;23.310;2022-10-03T13:14:05;93913.22;;;18.60;45.58
11682;BME280;5897;42.640;23.310;2022-10-03T13:16:43;93926.78;;;18.69;46.04
11682;BME280;5897;42.640;23.310;2022-10-03T13:19:17;93914.06;;;18.86;46.24
11682;BME280;5897;42.640;23.310;2022-10-03T13:21:56;93911.69;;;19.19;44.43
11682;BME280;5897;42.640;23.310;2022-10-03T13:24:33;93915.41;;;18.96;45.30
11682;BME280;5897;42.640;23.310;2022-10-03T13:27:13;93908.31;;;18.84;45.83
11682;BME280;5897;42.640;23.310;2022-10-03T13:29:44;93910.38;;;18.89;45.98
11682;BME280;5897;42.640;23.310;2022-10-03T13:32:25;93902.97;;;18.75;46.74
11682;BME280;5897;42.640;23.310;2022-10-03T13:38:17;93896.72;;;18.34;47.73
11682;BME280;5897;42.640;23.310;2022-10-03T13:40:53;93894.28;;;18.56;47.31
11682;BME280;5897;42.640;23.310;2022-10-03T13:43:25;93889.28;;;18.55;45.90
11682;BME280;5897;42.640;23.310;2022-10-03T13:45:54;93885.28;;;18.36;47.52
11682;BME280;5897;42.640;23.310;2022-10-03T13:48:25;93887.28;;;18.75;47.67
11682;BME280;5897;42.640;23.310;2022-10-03T13:50:57;93897.03;;;18.96;45.29
11682;BME280;5897;42.640;23.310;2022-10-03T13:53:49;93889.06;;;18.98;45.44
11682;BME280;5897;42.640;23.310;2022-10-03T13:56:33;93895.91;;;19.08;44.55
11682;BME280;5897;42.640;23.310;2022-10-03T13:59:11;93903.03;;;18.60;44.63
11682;BME280;5897;42.640;23.310;2022-10-03T14:01:47;93902.19;;;18.34;46.24
11682;BME280;5897;42.640;23.310;2022-10-03T14:04:43;93901.16;;;18.32;45.24
11682;BME280;5897;42.640;23.310;2022-10-03T14:07:21;93900.47;;;18.22;44.71
11682;BME280;5897;42.640;23.310;2022-10-03T14:10:13;93899.25;;;18.38;44.17
11682;BME280;5897;42.640;23.310;2022-10-03T14:12:55;93894.34;;;18.62;43.83
11682;BME280;5897;42.640;23.310;2022-10-03T14:15:39;93903.41;;;18.19;43.56
11682;BME280;5897;42.640;23.310;2022-10-03T14:18:18;93903.16;;;18.02;46.09
11682;BME280;5897;42.640;23.310;2022-10-03T14:24:14;93906.91;;;17.32;46.90
11682;BME280;5897;42.640;23.310;2022-10-03T14:26:47;93913.59;;;17.17;48.63
11682;BME280;5897;42.640;23.310;2022-10-03T14:29:22;93904.88;;;17.42;47.43
11682;BME280;5897;42.640;23.310;2022-10-03T14:31:56;93893.41;;;17.38;46.84
11682;BME280;5897;42.640;23.310;2022-10-03T14:34:35;93879.72;;;17.23;47.31
11682;BME280;5897;42.640;23.310;2022-10-03T14:37:14;93891.38;;;17.24;47.54
11682;BME280;5897;42.640;23.310;2022-10-03T14:39:53;93893.09;;;16.83;47.45
11682;BME280;5897;42.640;23.310;2022-10-03T14:45:22;93899.59;;;16.06;49.78
11682;BME280;5897;42.640;23.310;2022-10-03T14:47:53;93892.31;;;15.71;49.70
11682;BME280;5897;42.640;23.310;2022-10-03T14:50:24;93911.72;;;15.55;51.64
11682;BME280;5897;42.640;23.310;2022-10-03T14:52:55;93902.53;;;15.16;53.87
11682;BME280;5897;42.640;23.310;2022-10-03T14:55:31;93916.31;;;15.04;55.51
11682;BME280;5897;42.640;23.310;2022-10-03T14:58:00;93923.72;;;14.94;55.59
11682;BME280;5897;42.640;23.310;2022-10-03T15:00:36;93917.22;;;14.83;57.53
11682;BME280;5897;42.640;23.310;2022-10-03T15:03:34;93927.78;;;14.72;60.20
11682;BME280;5897;42.640;23.310;2022-10-03T15:06:20;93939.88;;;14.62;61.35
11682;BME280;5897;42.640;23.310;2022-10-03T15:08:51;93932.88;;;14.52;62.82
11682;BME280;5897;42.640;23.310;2022-10-03T15:11:26;93927.28;;;14.37;64.19
11682;BME280;5897;42.640;23.310;2022-10-03T15:13:56;93948.09;;;14.22;65.80
11682;BME280;5897;42.640;23.310;2022-10-03T15:16:29;93943.53;;;14.19;66.29
11682;BME280;5897;42.640;23.310;2022-10-03T15:19:00;93937.72;;;14.08;67.52
11682;BME280;5897;42.640;23.310;2022-10-03T15:21:30;93941.00;;;14.25;63.78
11682;BME280;5897;42.640;23.310;2022-10-03T15:24:00;93942.25;;;14.42;59.86
11682;BME280;5897;42.640;23.310;2022-10-03T15:26:33;93942.56;;;14.53;62.90
11682;BME280;5897;42.640;23.310;2022-10-03T15:29:03;93945.16;;;14.56;58.96
11682;BME280;5897;42.640;23.310;2022-10-03T15:31:35;93943.47;;;14.50;55.79
11682;BME280;5897;42.640;23.310;2022-10-03T15:34:04;93953.72;;;14.46;54.64
11682;BME280;5897;42.640;23.310;2022-10-03T15:36:35;93952.03;;;14.30;56.37
11682;BME280;5897;42.640;23.310;2022-10-03T15:39:06;93949.75;;;14.29;58.81
11682;BME280;5897;42.640;23.310;2022-10-03T15:41:50;93958.19;;;14.22;59.24
11682;BME280;5897;42.640;23.310;2022-10-03T15:44:21;93967.47;;;14.12;59.60
11682;BME280;5897;42.640;23.310;2022-10-03T15:46:51;93955.81;;;14.02;58.84
11682;BME280;5897;42.640;23.310;2022-10-03T15:49:23;93961.13;;;14.06;59.47
11682;BME280;5897;42.640;23.310;2022-10-03T15:51:52;93961.97;;;13.94;59.49
11682;BME280;5897;42.640;23.310;2022-10-03T15:54:21;93969.19;;;13.88;59.25
11682;BME280;5897;42.640;23.310;2022-10-03T15:56:52;93957.97;;;13.77;59.45
11682;BME280;5897;42.640;23.310;2022-10-03T15:59:22;93966.97;;;13.65;60.03
11682;BME280;5897;42.640;23.310;2022-10-03T16:01:52;93973.09;;;13.56;59.91
11682;BME280;5897;42.640;23.310;2022-10-03T16:04:22;93967.59;;;13.47;58.96
11682;BME280;5897;42.640;23.310;2022-10-03T16:06:57;93966.78;;;13.38;59.56
11682;BME280;5897;42.640;23.310;2022-10-03T16:09:31;93976.91;;;13.37;60.20
11682;BME280;5897;42.640;23.310;2022-10-03T16:14:58;93988.44;;;13.29;60.91
11682;BME280;5897;42.640;23.310;2022-10-03T16:17:39;93988.44;;;13.29;61.21
11682;BME280;5897;42.640;23.310;2022-10-03T16:20:12;93990.97;;;13.23;61.47
11682;BME280;5897;42.640;23.310;2022-10-03T16:22:44;94000.28;;;13.22;61.74
11682;BME280;5897;42.640;23.310;2022-10-03T16:25:17;93999.53;;;13.22;62.14
11682;BME280;5897;42.640;23.310;2022-10-03T16:27:52;94009.22;;;13.23;62.53
11682;BME280;5897;42.640;23.310;2022-10-03T16:30:20;94005.72;;;13.22;62.78
11682;BME280;5897;42.640;23.310;2022-10-03T16:33:02;94012.31;;;13.34;62.80
11682;BME280;5897;42.640;23.310;2022-10-03T16:35:35;94011.84;;;13.35;63.08
11682;BME280;5897;42.640;23.310;2022-10-03T16:38:06;94008.25;;;13.38;63.53
11682;BME280;5897;42.640;23.310;2022-10-03T16:40:39;94015.50;;;13.41;63.35
11682;BME280;5897;42.640;23.310;2022-10-03T16:43:15;94009.47;;;13.37;64.60
11682;BME280;5897;42.640;23.310;2022-10-03T16:45:45;94011.41;;;13.37;64.66
11682;BME280;5897;42.640;23.310;2022-10-03T16:48:18;94016.84;;;13.37;64.93
11682;BME280;5897;42.640;23.310;2022-10-03T16:51:05;94043.31;;;13.33;64.63
11682;BME280;5897;42.640;23.310;2022-10-03T16:53:40;94033.63;;;13.23;64.54
11682;BME280;5897;42.640;23.310;2022-10-03T16:56:13;94021.22;;;13.22;64.68
11682;BME280;5897;42.640;23.310;2022-10-03T16:58:47;94031.78;;;13.20;64.99
11682;BME280;5897;42.640;23.310;2022-10-03T17:01:27;94032.41;;;13.24;64.71
11682;BME280;5897;42.640;23.310;2022-10-03T17:04:10;94037.19;;;13.20;64.95
11682;BME280;5897;42.640;23.310;2022-10-03T17:06:38;94027.44;;;13.22;65.40
11682;BME280;5897;42.640;23.310;2022-10-03T17:09:12;94039.06;;;13.23;65.31
11682;BME280;5897;42.640;23.310;2022-10-03T17:11:45;94036.34;;;13.23;65.81
11682;BME280;5897;42.640;23.310;2022-10-03T17:14:17;94044.91;;;13.21;66.63